Time;durP1;ratioP1;P1;durP2;ratioP2;P2;SDS_P1;SDS_P2;PMS_P1;PMS_P2;Temp;Humidity;BMP_temperature;BMP_pressure;BME280_temperature;BME280_humidity;BME280_pressure;Samples;Min_cycle;Max_cycle;Signal;HPM_P1;HPM_P2
2021/08/07 00:00:58;;;;;;;5.23;2.78;;;;;;;11.89;88.42;95934.13;127623;1096;37686;-84
2021/08/07 00:03:29;;;;;;;4.10;2.70;;;;;;;11.83;88.54;95941.44;127744;1095;30311;-83
2021/08/07 00:06:00;;;;;;;5.40;2.50;;;;;;;11.84;88.65;95943.01;127629;1095;52272;-82
2021/08/07 00:08:32;;;;;;;5.98;2.75;;;;;;;11.84;88.47;95940.35;127602;1095;52327;-81
2021/08/07 00:11:03;;;;;;;4.68;2.98;;;;;;;11.88;88.72;95943.97;127632;1096;70248;-83
2021/08/07 00:13:35;;;;;;;6.38;2.93;;;;;;;11.95;88.87;95948.05;127590;1096;26213;-82
2021/08/07 00:16:07;;;;;;;4.88;2.65;;;;;;;11.96;88.68;95939.00;127554;1096;24937;-83
2021/08/07 00:18:39;;;;;;;5.35;2.63;;;;;;;11.95;88.65;95942.75;127525;1096;22812;-85
2021/08/07 00:21:11;;;;;;;4.15;2.83;;;;;;;11.96;88.62;95939.00;127553;1096;28984;-84
2021/08/07 00:23:42;;;;;;;5.10;3.00;;;;;;;11.98;88.84;95950.13;127625;1096;24716;-83
2021/08/07 00:26:13;;;;;;;3.78;2.50;;;;;;;12.00;88.76;95946.08;127579;1096;25710;-84
2021/08/07 00:28:45;;;;;;;3.63;2.55;;;;;;;12.05;88.79;95947.81;127610;1095;26296;-83
2021/08/07 00:31:16;;;;;;;7.33;2.70;;;;;;;12.04;88.57;95949.69;127472;1095;24826;-83
2021/08/07 00:33:48;;;;;;;3.65;2.20;;;;;;;12.02;88.49;95949.22;127473;1096;25868;-84
2021/08/07 00:36:19;;;;;;;5.00;2.30;;;;;;;12.00;88.64;95945.30;127575;1096;34891;-83
2021/08/07 00:38:50;;;;;;;4.23;2.10;;;;;;;11.96;88.71;95949.63;127584;1096;24081;-83
2021/08/07 00:41:21;;;;;;;2.93;2.13;;;;;;;11.96;88.92;95946.97;127626;1096;27761;-83
2021/08/07 00:43:53;;;;;;;3.80;2.25;;;;;;;11.98;89.06;95950.13;127585;1095;24555;-84
2021/08/07 00:46:24;;;;;;;3.35;2.38;;;;;;;12.02;89.37;95953.74;127590;1095;27691;-83
2021/08/07 00:48:55;;;;;;;4.63;2.98;;;;;;;12.06;89.48;95952.05;127703;1096;25595;-83
2021/08/07 00:51:27;;;;;;;4.28;3.00;;;;;;;12.07;89.59;95950.95;127723;1096;23428;-83
2021/08/07 00:54:05;;;;;;;4.37;2.33;;;;;;;12.05;89.69;95951.26;127603;1096;27380;-83
2021/08/07 00:56:36;;;;;;;2.98;2.50;;;;;;;12.07;89.79;95954.39;127638;1096;24145;-83
2021/08/07 00:59:07;;;;;;;4.28;2.73;;;;;;;12.13;89.97;95952.41;127568;1095;27912;-83
2021/08/07 01:01:44;;;;;;;3.95;2.73;;;;;;;12.16;89.93;95949.14;127558;1096;24118;-84
2021/08/07 01:04:21;;;;;;;4.70;2.63;;;;;;;12.18;89.87;95946.96;127538;1096;27980;-83
2021/08/07 01:07:01;;;;;;;4.58;2.63;;;;;;;12.21;90.05;95956.19;127469;1096;22806;-83
2021/08/07 01:09:42;;;;;;;3.43;2.90;;;;;;;12.24;89.82;95955.58;127591;1096;23616;-83
2021/08/07 01:12:19;;;;;;;4.43;2.60;;;;;;;12.25;89.79;95952.64;127658;1096;27327;-83
2021/08/07 01:14:52;;;;;;;2.98;2.58;;;;;;;12.26;89.93;95953.42;127594;1096;45832;-83
2021/08/07 01:17:25;;;;;;;3.70;2.75;;;;;;;12.27;90.00;95955.78;127597;1096;47325;-83
2021/08/07 01:20:04;;;;;;;3.55;2.60;;;;;;;12.28;89.75;95956.56;127698;1096;24413;-83
2021/08/07 01:22:43;;;;;;;3.93;2.48;;;;;;;12.30;90.05;95965.80;127661;1096;23625;-82
2021/08/07 01:25:19;;;;;;;2.97;2.60;;;;;;;12.33;90.33;95969.70;127674;1096;24474;-83
2021/08/07 01:27:51;;;;;;;4.23;2.55;;;;;;;12.36;90.23;95974.41;127691;1096;49385;-84
2021/08/07 01:30:22;;;;;;;4.00;2.73;;;;;;;12.36;90.14;95975.20;127539;1096;51545;-83
2021/08/07 01:32:56;;;;;;;5.38;2.40;;;;;;;12.40;90.08;95967.42;127656;1096;46438;-82
2021/08/07 01:35:28;;;;;;;4.65;2.70;;;;;;;12.47;90.41;95967.75;127692;1096;28855;-83
2021/08/07 01:37:59;;;;;;;3.55;2.63;;;;;;;12.53;90.40;95969.20;127691;1096;25557;-84
2021/08/07 01:40:30;;;;;;;2.75;2.25;;;;;;;12.53;90.15;95971.05;127744;1095;52207;-84
2021/08/07 01:43:02;;;;;;;4.20;2.90;;;;;;;12.53;90.19;95977.19;127655;1095;52712;-82
2021/08/07 01:45:33;;;;;;;4.23;2.48;;;;;;;12.56;90.47;95975.78;127595;1095;25957;-82
2021/08/07 01:48:07;;;;;;;3.70;2.40;;;;;;;12.58;90.38;95970.94;127603;1096;22803;-84
2021/08/07 01:50:45;;;;;;;3.70;2.37;;;;;;;12.61;90.57;95980.95;127681;1095;22851;-84
2021/08/07 01:53:20;;;;;;;2.28;2.08;;;;;;;12.63;90.53;95973.45;127723;1096;25526;-83
2021/08/07 01:55:57;;;;;;;3.80;2.80;;;;;;;12.68;90.51;95978.66;127716;1095;22810;-83
2021/08/07 01:58:32;;;;;;;3.05;2.43;;;;;;;12.70;90.56;95979.13;127716;1096;22858;-84
2021/08/07 02:01:14;;;;;;;5.38;2.68;;;;;;;12.74;90.57;95972.88;127590;1096;41985;-84
2021/08/07 02:03:47;;;;;;;3.33;2.43;;;;;;;12.74;90.65;95978.20;127683;1096;23402;-83
2021/08/07 02:06:19;;;;;;;3.28;2.35;;;;;;;12.76;90.64;95983.21;127650;1096;43356;-84
2021/08/07 02:08:52;;;;;;;4.47;2.60;;;;;;;12.77;90.56;95979.45;127781;1096;25353;-83
2021/08/07 02:11:24;;;;;;;3.38;2.43;;;;;;;12.77;90.53;95980.23;127651;1096;27025;-83
2021/08/07 02:13:57;;;;;;;4.35;2.90;;;;;;;12.80;90.47;95978.84;127640;1096;23980;-83
2021/08/07 02:16:30;;;;;;;3.10;2.50;;;;;;;12.79;90.45;95972.73;127732;1096;25234;-83
2021/08/07 02:19:01;;;;;;;3.73;2.80;;;;;;;12.79;90.71;95974.61;127753;1096;27570;-82
2021/08/07 02:21:34;;;;;;;5.70;3.00;;;;;;;12.80;90.42;95978.84;127703;1096;39954;-83
2021/08/07 02:24:06;;;;;;;3.98;2.65;;;;;;;12.79;90.61;95974.61;127710;1096;48026;-83
2021/08/07 02:26:38;;;;;;;3.00;2.60;;;;;;;12.78;90.75;95981.81;127739;1096;25213;-84
2021/08/07 02:29:10;;;;;;;4.18;2.80;;;;;;;12.74;90.78;95985.39;127676;1095;51331;-84
2021/08/07 02:31:42;;;;;;;3.90;3.00;;;;;;;12.72;90.82;95984.92;127736;1096;23126;-84
2021/08/07 02:34:14;;;;;;;5.30;3.05;;;;;;;12.71;91.09;95994.78;127750;1096;23429;-84
2021/08/07 02:36:47;;;;;;;3.65;2.90;;;;;;;12.68;91.06;95990.08;127709;1096;26968;-83
2021/08/07 02:39:19;;;;;;;4.08;2.80;;;;;;;12.65;91.00;95992.54;127574;1096;27283;-84
2021/08/07 02:41:51;;;;;;;4.35;3.40;;;;;;;12.65;91.20;95990.66;127664;1096;53280;-84
2021/08/07 02:44:22;;;;;;;4.33;2.80;;;;;;;12.65;91.24;95988.00;127593;1096;38296;-83
2021/08/07 02:46:54;;;;;;;3.83;2.70;;;;;;;12.66;91.37;95991.45;127754;1096;38579;-83
2021/08/07 02:49:25;;;;;;;4.18;2.95;;;;;;;12.65;91.47;95992.54;127715;1095;51759;-83
2021/08/07 02:51:57;;;;;;;4.53;3.13;;;;;;;12.64;91.55;95996.30;127738;1095;45430;-83
2021/08/07 02:54:30;;;;;;;2.95;2.53;;;;;;;12.63;91.57;96000.05;127771;1096;25492;-83
2021/08/07 02:57:01;;;;;;;4.60;2.70;;;;;;;12.65;91.88;95998.64;127749;1096;26689;-82
2021/08/07 02:59:32;;;;;;;3.38;2.60;;;;;;;12.65;91.54;96000.52;127722;1096;22799;-82
2021/08/07 03:02:05;;;;;;;3.50;2.50;;;;;;;12.65;91.54;96001.30;127574;1096;26937;-82
2021/08/07 03:04:36;;;;;;;3.48;2.73;;;;;;;12.67;91.43;96004.47;127650;1096;43084;-83
2021/08/07 03:07:07;;;;;;;2.45;2.25;;;;;;;12.67;91.55;96003.69;127645;1096;46446;-83
2021/08/07 03:09:38;;;;;;;3.65;2.78;;;;;;;12.66;91.61;96005.53;127667;1095;30178;-84
2021/08/07 03:12:10;;;;;;;3.53;2.90;;;;;;;12.66;91.91;96000.21;127689;1096;52939;-83
2021/08/07 03:14:41;;;;;;;4.15;3.00;;;;;;;12.68;92.20;96002.59;127793;1096;52444;-83
2021/08/07 03:17:12;;;;;;;3.95;2.60;;;;;;;12.71;92.34;96002.75;127775;1095;23890;-83
2021/08/07 03:19:44;;;;;;;4.15;2.78;;;;;;;12.71;92.28;95994.78;127766;1096;28044;-83
2021/08/07 03:22:17;;;;;;;3.38;2.85;;;;;;;12.73;92.35;96000.57;127618;1096;52437;-83
2021/08/07 03:24:49;;;;;;;3.80;2.78;;;;;;;12.79;92.47;96003.87;127722;1096;48556;-83
2021/08/07 03:27:20;;;;;;;3.97;2.97;;;;;;;12.84;92.79;96000.31;127580;1096;40143;-83
2021/08/07 03:29:51;;;;;;;3.53;2.83;;;;;;;12.88;92.68;96004.70;127565;1096;26349;-84
2021/08/07 03:32:23;;;;;;;3.68;2.88;;;;;;;12.92;92.65;96002.20;127618;1096;24992;-83
2021/08/07 03:34:54;;;;;;;3.33;2.80;;;;;;;12.97;92.76;96016.17;127679;1096;48136;-83
2021/08/07 03:37:25;;;;;;;4.48;2.98;;;;;;;13.01;92.83;96003.81;127611;1096;52056;-83
2021/08/07 03:39:57;;;;;;;4.03;2.75;;;;;;;13.05;92.77;96011.95;127721;1096;27785;-83
2021/08/07 03:42:28;;;;;;;2.83;2.53;;;;;;;13.10;92.79;96009.17;127831;1096;22825;-83
2021/08/07 03:44:59;;;;;;;4.37;2.57;;;;;;;13.16;93.08;96002.60;127841;1096;24722;-83
2021/08/07 03:47:31;;;;;;;4.43;2.60;;;;;;;13.23;92.80;96000.31;127567;1096;25681;-84
2021/08/07 03:50:02;;;;;;;3.40;2.88;;;;;;;13.32;92.80;96010.97;127616;1096;44291;-82
2021/08/07 03:52:34;;;;;;;2.68;2.23;;;;;;;13.37;92.67;95997.50;127713;1096;28071;-83
2021/08/07 03:55:06;;;;;;;3.08;2.50;;;;;;;13.43;92.53;96001.60;127633;1095;27155;-83
2021/08/07 03:57:54;;;;;;;3.43;2.65;;;;;;;13.51;92.62;95994.70;127677;1096;28030;-84
2021/08/07 04:00:27;;;;;;;3.30;2.40;;;;;;;13.62;92.51;96004.75;127618;1095;22802;-84
2021/08/07 04:02:58;;;;;;;3.08;2.23;;;;;;;13.70;92.42;96013.86;127680;1096;39801;-83
2021/08/07 04:05:30;;;;;;;3.83;2.25;;;;;;;13.75;92.10;96007.59;127680;1095;27250;-84
2021/08/07 04:08:08;;;;;;;3.60;2.60;;;;;;;13.77;91.85;96003.50;127639;1095;55320;-83
2021/08/07 04:10:40;;;;;;;3.13;2.35;;;;;;;13.81;91.75;96014.34;127739;1096;25858;-84
2021/08/07 04:13:12;;;;;;;2.63;2.25;;;;;;;13.87;91.90;96019.19;127638;1095;37977;-84
2021/08/07 04:15:43;;;;;;;2.95;2.33;;;;;;;13.93;91.89;96019.81;127665;1096;24380;-85
2021/08/07 04:18:14;;;;;;;3.65;2.65;;;;;;;14.00;91.80;96020.14;127604;1096;36068;-83
2021/08/07 04:20:46;;;;;;;3.65;2.98;;;;;;;14.08;91.20;96018.58;127583;1096;22830;-83
2021/08/07 04:23:17;;;;;;;5.45;2.70;;;;;;;14.15;91.60;96027.66;127542;1096;23868;-83
2021/08/07 04:25:49;;;;;;;3.23;2.63;;;;;;;14.24;91.19;96027.66;127513;1096;27467;-83
2021/08/07 04:28:20;;;;;;;3.45;2.43;;;;;;;14.33;91.21;96022.30;127551;1096;27288;-84
2021/08/07 04:30:51;;;;;;;3.45;2.53;;;;;;;14.41;90.94;96022.30;127651;1095;22620;-84
2021/08/07 04:33:22;;;;;;;2.85;2.25;;;;;;;14.52;90.93;96022.78;127629;1096;24136;-84
2021/08/07 04:35:53;;;;;;;2.83;2.10;;;;;;;14.63;90.65;96029.33;127479;1096;31806;-83
2021/08/07 04:38:25;;;;;;;2.93;2.20;;;;;;;14.76;90.67;96031.02;127584;1096;27807;-84
2021/08/07 04:40:56;;;;;;;3.43;2.50;;;;;;;14.97;90.44;96033.00;127609;1096;27942;-85
2021/08/07 04:43:29;;;;;;;3.55;2.33;;;;;;;15.26;90.01;96027.69;127704;1096;24408;-83
2021/08/07 04:46:00;;;;;;;5.98;2.35;;;;;;;15.65;89.41;96039.14;127735;1096;22794;-83
2021/08/07 04:48:32;;;;;;;3.25;1.93;;;;;;;16.98;90.02;96040.81;127562;1096;33091;-85
2021/08/07 04:51:03;;;;;;;2.58;2.33;;;;;;;18.78;88.24;96038.48;127639;1096;28083;-83
2021/08/07 04:53:34;;;;;;;2.40;2.10;;;;;;;20.36;84.32;96033.64;127553;1096;23990;-84
2021/08/07 04:56:06;;;;;;;2.48;1.90;;;;;;;21.60;80.69;96034.28;127610;1096;24167;-84
2021/08/07 04:58:37;;;;;;;2.13;1.83;;;;;;;22.64;79.46;96028.28;127690;1096;29962;-84
2021/08/07 05:01:09;;;;;;;6.23;2.05;;;;;;;23.64;74.90;96038.88;127693;1096;24623;-84
2021/08/07 05:03:40;;;;;;;3.73;1.98;;;;;;;24.23;71.45;96039.61;127601;1096;61315;-84
2021/08/07 05:06:12;;;;;;;3.28;1.85;;;;;;;24.77;69.70;96043.31;127586;1096;25672;-84
2021/08/07 05:08:43;;;;;;;2.55;1.60;;;;;;;25.37;67.14;96044.58;127619;1095;24956;-84
2021/08/07 05:11:14;;;;;;;3.25;1.83;;;;;;;25.72;64.37;96052.70;127630;1096;27508;-85
2021/08/07 05:13:46;;;;;;;3.28;1.90;;;;;;;26.04;63.24;96044.52;127661;1095;24171;-84
2021/08/07 05:19:35;;;;;;;2.08;1.75;;;;;;;26.89;59.50;96048.07;127317;1095;46502;-84
2021/08/07 05:22:06;;;;;;;2.80;2.10;;;;;;;27.37;58.15;96055.53;116085;1096;7718785;-84
2021/08/07 05:24:37;;;;;;;2.15;1.83;;;;;;;27.53;56.77;96055.79;127574;1096;24276;-84
2021/08/07 05:27:09;;;;;;;2.15;1.95;;;;;;;27.72;55.26;96055.25;127482;1096;30158;-83
2021/08/07 05:29:44;;;;;;;1.63;1.53;;;;;;;28.12;53.85;96063.81;123627;1096;2351839;-84
2021/08/07 05:32:43;;;;;;;2.93;1.60;;;;;;;28.34;53.48;96059.72;114551;1096;7271302;-84
2021/08/07 05:35:17;;;;;;;1.90;1.60;;;;;;;28.51;51.07;96059.91;127688;1096;23974;-85
2021/08/07 05:37:48;;;;;;;2.23;1.80;;;;;;;28.52;50.83;96056.77;127590;1095;35268;-84
2021/08/07 05:40:20;;;;;;;2.88;1.80;;;;;;;29.03;51.26;96051.45;127497;1096;24270;-84
2021/08/07 05:42:51;;;;;;;2.48;1.70;;;;;;;29.88;49.73;96052.84;127508;1095;42535;-85
2021/08/07 05:45:23;;;;;;;2.38;1.53;;;;;;;30.32;49.56;96061.81;127614;1096;30196;-84
2021/08/07 05:47:54;;;;;;;1.70;1.53;;;;;;;30.80;48.18;96055.77;127535;1096;26552;-84
2021/08/07 05:50:25;;;;;;;1.90;1.40;;;;;;;31.20;46.53;96063.91;127476;1096;28853;-85
2021/08/07 05:52:57;;;;;;;2.28;1.65;;;;;;;31.09;43.44;96060.61;127711;1096;29422;-84
2021/08/07 05:55:28;;;;;;;1.53;1.43;;;;;;;30.87;43.48;96057.59;127636;1096;25391;-84
2021/08/07 05:58:02;;;;;;;4.23;1.80;;;;;;;30.71;44.49;96058.32;127640;1095;23737;-84
2021/08/07 06:00:34;;;;;;;1.80;1.48;;;;;;;31.18;44.09;96058.86;127502;1096;25903;-82
2021/08/07 06:03:05;;;;;;;1.83;1.50;;;;;;;31.77;43.50;96060.59;127699;1096;26567;-83
2021/08/07 06:05:36;;;;;;;1.50;1.40;;;;;;;32.27;43.59;96059.30;127488;1096;25769;-85
2021/08/07 06:08:10;;;;;;;2.90;1.63;;;;;;;32.61;41.45;96044.25;127592;1096;24827;-84
2021/08/07 06:10:41;;;;;;;1.90;1.50;;;;;;;32.33;41.28;96052.09;127578;1096;26729;-83
2021/08/07 06:13:13;;;;;;;1.20;1.10;;;;;;;32.17;41.13;96050.14;127620;1094;27811;-84
2021/08/07 06:15:44;;;;;;;2.55;1.60;;;;;;;32.57;40.99;96052.59;127518;1096;24050;-84
2021/08/07 06:18:16;;;;;;;1.38;1.28;;;;;;;32.90;39.89;96055.19;127562;1096;25277;-84
2021/08/07 06:20:48;;;;;;;1.50;1.28;;;;;;;32.95;39.69;96055.44;127673;1096;31825;-84
2021/08/07 06:23:20;;;;;;;1.60;1.50;;;;;;;33.45;40.31;96055.88;127581;1096;43060;-84
2021/08/07 06:25:51;;;;;;;3.73;1.80;;;;;;;33.53;37.00;96063.45;127647;1096;26272;-84
2021/08/07 06:28:23;;;;;;;1.55;1.40;;;;;;;33.38;37.34;96062.38;127616;1095;23743;-85
2021/08/07 06:30:55;;;;;;;1.75;1.33;;;;;;;32.89;37.25;96070.90;127481;1095;25411;-85
2021/08/07 06:33:26;;;;;;;1.40;1.30;;;;;;;33.36;38.33;96064.77;127644;1096;52042;-84
2021/08/07 06:35:59;;;;;;;3.20;1.20;;;;;;;34.06;36.65;96062.89;127651;1096;55375;-84
2021/08/07 06:38:31;;;;;;;1.40;1.30;;;;;;;34.20;37.12;96065.91;127760;1095;23196;-84
2021/08/07 06:41:02;;;;;;;1.55;1.43;;;;;;;34.84;36.81;96071.11;127754;1095;25819;-84
2021/08/07 06:43:34;;;;;;;1.70;1.60;;;;;;;35.37;36.80;96069.11;127798;1095;47955;-84
2021/08/07 06:46:05;;;;;;;2.20;1.25;;;;;;;35.43;34.30;96065.75;127779;1096;42508;-84
2021/08/07 06:48:37;;;;;;;2.18;1.23;;;;;;;35.51;35.48;96067.00;127725;1096;26292;-84
2021/08/07 06:51:08;;;;;;;2.10;1.03;;;;;;;35.21;34.82;96068.57;127542;1096;25749;-84
2021/08/07 06:53:40;;;;;;;1.55;1.45;;;;;;;35.22;34.29;96065.36;127464;1096;55326;-84
2021/08/07 06:56:11;;;;;;;2.75;1.40;;;;;;;35.58;35.11;96061.95;127493;1096;26678;-84
2021/08/07 06:58:45;;;;;;;1.60;1.23;;;;;;;35.68;33.55;96058.00;127487;1096;23677;-84
2021/08/07 07:01:16;;;;;;;2.63;1.15;;;;;;;34.74;33.46;96059.27;127496;1094;24541;-84
2021/08/07 07:03:48;;;;;;;1.27;1.10;;;;;;;34.72;33.66;96064.47;127467;1095;56480;-84
2021/08/07 07:06:19;;;;;;;1.50;1.38;;;;;;;35.53;34.38;96070.84;127637;1096;55868;-84
2021/08/07 07:08:51;;;;;;;1.45;1.35;;;;;;;36.16;34.11;96069.40;127759;1095;56568;-85
2021/08/07 07:11:23;;;;;;;1.33;1.05;;;;;;;36.84;34.10;96078.27;127979;1096;26649;-84
2021/08/07 07:13:54;;;;;;;2.55;1.10;;;;;;;36.95;30.86;96069.50;127885;1096;35716;-84
2021/08/07 07:16:26;;;;;;;1.98;1.38;;;;;;;35.79;31.75;96071.36;127802;1096;32460;-84
2021/08/07 07:18:57;;;;;;;1.25;1.15;;;;;;;34.45;33.87;96076.06;127913;1096;28437;-84
2021/08/07 07:21:29;;;;;;;2.60;1.25;;;;;;;33.40;33.01;96059.95;127848;1096;24410;-84
2021/08/07 07:24:00;;;;;;;1.95;1.08;;;;;;;33.32;34.64;96064.86;127743;1096;27291;-84
2021/08/07 07:26:31;;;;;;;1.58;1.20;;;;;;;32.47;34.56;96062.66;127773;1096;27565;-83
2021/08/07 07:29:04;;;;;;;2.70;1.20;;;;;;;32.57;34.85;96076.53;127685;1096;30288;-83
2021/08/07 07:31:35;;;;;;;1.75;1.15;;;;;;;33.58;36.71;96067.62;127591;1096;31635;-84
2021/08/07 07:34:06;;;;;;;2.55;1.50;;;;;;;35.28;33.95;96071.03;127715;1096;26274;-83
2021/08/07 07:36:38;;;;;;;1.78;1.00;;;;;;;36.73;34.07;96061.38;127662;1096;26986;-84
2021/08/07 07:39:09;;;;;;;1.68;0.90;;;;;;;36.27;30.40;96068.95;127683;1096;26147;-84
2021/08/07 07:41:41;;;;;;;1.53;1.00;;;;;;;36.61;31.55;96067.11;127679;1096;42109;-84
2021/08/07 07:44:12;;;;;;;0.87;0.87;;;;;;;37.45;30.59;96069.95;127747;1095;59337;-84
2021/08/07 07:46:45;;;;;;;1.25;1.05;;;;;;;37.93;30.66;96073.51;127771;1096;29137;-86
2021/08/07 07:49:16;;;;;;;1.30;1.20;;;;;;;38.59;29.51;96072.53;127608;1095;24951;-86
2021/08/07 07:51:49;;;;;;;2.00;1.18;;;;;;;38.64;29.57;96068.33;127732;1096;39041;-85
2021/08/07 07:54:32;;;;;;;2.70;0.98;;;;;;;38.44;29.13;96063.45;127717;1096;25187;-85
2021/08/07 07:57:03;;;;;;;1.88;1.00;;;;;;;38.05;26.36;96068.20;127629;1096;28482;-85
2021/08/07 07:59:36;;;;;;;2.28;1.15;;;;;;;37.74;26.85;96074.88;127670;1096;25401;-85
2021/08/07 08:02:16;;;;;;;2.73;1.08;;;;;;;36.50;26.88;96076.63;127666;1096;40173;-85
2021/08/07 08:04:48;;;;;;;1.03;0.90;;;;;;;35.30;28.86;96077.62;127687;1096;23381;-84
2021/08/07 08:07:19;;;;;;;1.10;1.00;;;;;;;35.46;29.00;96073.10;127722;1096;25444;-84
2021/08/07 08:09:50;;;;;;;2.50;1.00;;;;;;;36.31;30.41;96069.55;127718;1096;26637;-85
2021/08/07 08:12:22;;;;;;;1.80;0.90;;;;;;;37.33;29.07;96068.16;127760;1096;24101;-84
2021/08/07 08:14:53;;;;;;;3.10;0.90;;;;;;;37.72;30.07;96063.47;127715;1096;26209;-84
2021/08/07 08:17:24;;;;;;;1.40;0.95;;;;;;;37.71;27.95;96071.00;127746;1096;26243;-84
2021/08/07 08:19:56;;;;;;;1.43;0.78;;;;;;;37.09;27.49;96071.59;127678;1096;22797;-85
2021/08/07 08:22:27;;;;;;;2.95;1.20;;;;;;;36.93;29.36;96073.97;127673;1096;25788;-85
2021/08/07 08:24:59;;;;;;;1.65;1.18;;;;;;;36.33;27.63;96080.95;127787;1096;31623;-84
2021/08/07 08:27:31;;;;;;;1.83;0.88;;;;;;;35.23;28.65;96077.91;127769;1095;23748;-85
2021/08/07 08:30:02;;;;;;;1.10;0.80;;;;;;;34.09;30.34;96071.04;127606;1096;24674;-81
2021/08/07 08:32:34;;;;;;;1.58;1.35;;;;;;;33.40;31.32;96079.19;127667;1096;31948;-85
2021/08/07 08:35:06;;;;;;;1.33;1.03;;;;;;;33.18;31.86;96083.77;127707;1096;41085;-85
2021/08/07 08:37:38;;;;;;;1.15;0.85;;;;;;;32.55;33.45;96085.20;127698;1096;28388;-85
2021/08/07 08:40:11;;;;;;;1.08;0.93;;;;;;;31.94;33.00;96086.01;127704;1096;24380;-85
2021/08/07 08:42:43;;;;;;;1.18;0.80;;;;;;;30.54;34.27;96097.71;127716;1096;28896;-85
2021/08/07 08:45:15;;;;;;;2.33;1.20;;;;;;;29.46;35.65;96087.88;127651;1095;23546;-85
2021/08/07 08:47:47;;;;;;;1.43;0.98;;;;;;;28.82;37.30;96096.14;127692;1096;25284;-84
2021/08/07 08:50:22;;;;;;;3.80;1.23;;;;;;;28.60;38.40;96092.92;127529;1095;31726;-86
2021/08/07 08:52:57;;;;;;;1.15;1.05;;;;;;;28.81;38.43;96095.37;127627;1096;24574;-85
2021/08/07 08:55:29;;;;;;;2.65;1.10;;;;;;;28.56;38.67;96087.48;127714;1096;25253;-84
2021/08/07 08:58:01;;;;;;;0.70;0.70;;;;;;;28.79;39.48;96094.23;127710;1095;23238;-85
2021/08/07 09:00:33;;;;;;;0.90;0.90;;;;;;;28.97;38.77;96089.34;127619;1096;24841;-83
2021/08/07 09:03:04;;;;;;;1.20;1.05;;;;;;;28.51;38.89;96090.67;127776;1095;24234;-86
2021/08/07 09:05:36;;;;;;;1.60;1.50;;;;;;;27.97;38.92;96095.89;127684;1096;32842;-86
2021/08/07 09:08:08;;;;;;;1.48;1.03;;;;;;;26.96;40.14;96102.42;127644;1096;26722;-87
2021/08/07 09:10:40;;;;;;;1.13;1.03;;;;;;;25.86;41.91;96100.80;127627;1096;26961;-86
2021/08/07 09:13:22;;;;;;;2.03;1.43;;;;;;;25.32;43.08;96099.98;127653;1096;27289;-85
2021/08/07 09:15:54;;;;;;;2.93;1.75;;;;;;;24.99;43.85;96097.58;127611;1096;41542;-85
2021/08/07 09:18:26;;;;;;;2.25;1.30;;;;;;;24.63;44.40;96089.33;127510;1096;149265;-85
2021/08/07 09:20:57;;;;;;;1.40;1.25;;;;;;;24.09;44.60;96098.35;127496;1096;70187;-83
2021/08/07 09:23:34;;;;;;;1.38;1.10;;;;;;;23.96;45.19;96103.30;127566;1096;29886;-84
2021/08/07 09:26:21;;;;;;;2.25;1.50;;;;;;;24.03;46.52;96114.16;127528;1096;32154;-86
2021/08/07 09:28:54;;;;;;;1.88;1.20;;;;;;;24.21;46.37;96103.42;127420;1096;72357;-85
2021/08/07 09:31:27;;;;;;;2.13;1.20;;;;;;;24.46;46.80;96103.59;127602;1096;32552;-85
2021/08/07 09:34:21;;;;;;;4.20;1.48;;;;;;;24.47;46.13;96107.84;127693;1096;38610;-84
2021/08/07 09:36:55;;;;;;;2.50;1.20;;;;;;;24.51;46.89;96114.08;127513;1096;71891;-86
2021/08/07 09:39:41;;;;;;;2.23;1.20;;;;;;;24.64;47.45;96115.30;127529;1096;34217;-85
2021/08/07 09:42:12;;;;;;;1.35;1.08;;;;;;;24.81;47.43;96108.39;127560;1096;32534;-85
2021/08/07 09:44:44;;;;;;;1.40;1.20;;;;;;;24.79;47.08;96111.48;127435;1096;27669;-85
2021/08/07 09:47:16;;;;;;;1.38;1.18;;;;;;;24.66;47.43;96123.05;123941;1096;2070105;-85
2021/08/07 09:49:47;;;;;;;1.30;1.20;;;;;;;24.71;47.51;96120.73;127468;1096;32263;-85
2021/08/07 09:52:19;;;;;;;2.27;1.40;;;;;;;24.81;47.70;96108.39;127439;1096;39564;-85
2021/08/07 09:54:51;;;;;;;1.50;1.10;;;;;;;24.83;47.76;96117.69;127573;1096;53501;-87
2021/08/07 09:57:30;;;;;;;2.10;1.28;;;;;;;24.71;47.05;96120.73;127496;1096;35110;-88
2021/08/07 10:00:01;;;;;;;1.57;1.10;;;;;;;24.32;47.01;96125.19;127475;1096;35560;-87
2021/08/07 10:02:36;;;;;;;2.75;1.50;;;;;;;24.21;47.34;96117.77;127487;1096;32103;-87
2021/08/07 10:05:11;;;;;;;2.25;1.53;;;;;;;24.21;48.01;96117.77;127566;1094;43026;-85
2021/08/07 10:08:04;;;;;;;1.95;1.40;;;;;;;24.25;46.60;96121.27;127513;1096;32496;-87
2021/08/07 10:10:35;;;;;;;1.98;1.38;;;;;;;24.06;46.40;96121.52;127432;1096;31147;-86
2021/08/07 10:13:08;;;;;;;1.20;0.88;;;;;;;24.10;47.60;96122.34;127670;1096;28691;-86
2021/08/07 10:15:42;;;;;;;1.80;1.08;;;;;;;24.16;47.40;96118.11;127579;1095;35063;-86
2021/08/07 10:18:15;;;;;;;1.78;1.15;;;;;;;24.11;46.65;96117.70;127610;1096;28976;-87
2021/08/07 10:20:46;;;;;;;1.73;1.30;;;;;;;24.06;47.25;96134.28;127454;1096;47236;-88
2021/08/07 10:23:18;;;;;;;1.20;1.00;;;;;;;24.03;47.18;96124.99;127567;1096;34973;-87
2021/08/07 10:25:50;;;;;;;5.23;1.53;;;;;;;24.06;48.26;96132.36;127641;1096;27343;-86
2021/08/07 10:28:24;;;;;;;3.53;1.60;;;;;;;24.08;47.84;96126.59;127606;1095;56898;-85
2021/08/07 10:30:59;;;;;;;2.25;1.00;;;;;;;24.13;47.34;96118.88;127576;1095;29651;-87
2021/08/07 10:33:31;;;;;;;3.75;1.45;;;;;;;24.16;47.79;96130.88;127651;1095;25185;-86
2021/08/07 10:36:03;;;;;;;2.20;1.40;;;;;;;24.15;48.09;96124.69;127554;1096;34102;-86
2021/08/07 10:38:36;;;;;;;2.53;1.30;;;;;;;24.19;48.03;96124.70;127569;1096;25459;-86
2021/08/07 10:41:08;;;;;;;3.05;1.90;;;;;;;24.15;47.71;96121.98;127692;1095;31290;-86
2021/08/07 10:43:41;;;;;;;1.90;1.15;;;;;;;24.20;48.33;96124.32;127774;1095;48541;-86
2021/08/07 10:46:17;;;;;;;3.45;1.60;;;;;;;24.30;48.08;96122.09;127612;1096;49020;-83
2021/08/07 10:48:50;;;;;;;1.75;1.18;;;;;;;24.27;47.74;96124.38;127828;1096;49690;-85
2021/08/07 10:51:39;;;;;;;3.78;1.48;;;;;;;24.35;47.51;96119.01;127846;1095;51887;-84
2021/08/07 10:54:36;;;;;;;2.43;1.90;;;;;;;24.48;47.76;96114.82;128052;1096;56744;-85
2021/08/07 12:35:32;;;;;;;1.58;1.00;;;;;;;24.69;44.22;96078.91;128011;1092;28119;-84
2021/08/07 12:38:04;;;;;;;1.50;1.05;;;;;;;24.56;42.88;96083.89;127676;1093;26659;-84
2021/08/07 12:40:35;;;;;;;2.00;1.10;;;;;;;24.51;44.08;96082.34;127556;1093;27398;-84
2021/08/07 12:43:07;;;;;;;2.05;1.18;;;;;;;24.54;44.48;96080.80;127607;1093;47569;-85
2021/08/07 12:45:38;;;;;;;1.05;0.83;;;;;;;24.66;44.99;96085.09;127538;1093;43270;-84
2021/08/07 12:48:10;;;;;;;2.23;0.83;;;;;;;24.76;45.34;96087.05;127626;1093;30163;-84
2021/08/07 12:50:42;;;;;;;1.28;0.93;;;;;;;24.90;45.64;96075.47;127525;1093;28746;-84
2021/08/07 12:53:14;;;;;;;1.75;1.23;;;;;;;25.05;45.24;96082.50;127559;1093;32104;-84
2021/08/07 12:55:52;;;;;;;2.00;1.18;;;;;;;25.14;43.73;96080.20;127948;1092;35021;-85
2021/08/07 12:58:24;;;;;;;1.23;1.10;;;;;;;25.19;45.00;96076.33;127954;1093;34528;-84
2021/08/07 13:01:12;;;;;;;2.80;0.90;;;;;;;25.19;43.77;96084.46;127986;1093;28666;-85
2021/08/07 13:03:59;;;;;;;1.93;1.18;;;;;;;25.12;44.26;96086.02;128015;1093;28387;-83
2021/08/07 13:06:31;;;;;;;1.75;1.20;;;;;;;25.12;45.00;96082.53;128114;1093;24670;-85
2021/08/07 13:09:26;;;;;;;1.13;0.90;;;;;;;25.17;44.76;96076.72;127944;1091;41757;-85
2021/08/07 13:12:07;;;;;;;1.25;0.90;;;;;;;25.16;44.62;96072.45;127998;1093;30097;-86
2021/08/07 13:14:41;;;;;;;1.70;1.30;;;;;;;25.20;45.30;96081.39;127969;1093;31562;-85
2021/08/07 13:17:32;;;;;;;1.95;0.93;;;;;;;25.30;44.81;96069.75;127996;1090;28669;-86
2021/08/07 13:20:06;;;;;;;7.83;5.40;;;;;;;25.34;44.04;96078.69;127992;1091;26943;-85
2021/08/07 13:22:42;;;;;;;2.73;1.00;;;;;;;25.38;45.59;96090.31;127965;1091;65087;-86
2021/08/07 13:25:18;;;;;;;1.60;1.30;;;;;;;25.42;44.60;96088.37;127935;1093;84793;-84
2021/08/07 13:27:50;;;;;;;6.48;1.25;;;;;;;25.32;44.83;96088.36;127969;1093;26933;-85
2021/08/07 13:30:24;;;;;;;1.25;0.98;;;;;;;25.25;44.52;96083.71;127932;1093;38658;-86
2021/08/07 13:33:06;;;;;;;1.38;1.10;;;;;;;25.20;44.46;96083.33;127957;1092;34784;-84